Terminal Aerodrome Forecast
Issued by NWS Tampa Bay Area, FL

Home | Current Version | Previous Version | Text Only | Print | Product List | Glossary On
Versions: 1 2 3 4 5 6 7 8 9 10 11 12 13 14 15 16 17 18 19 20 21 22 23 24 25 26 27 28
000
FTUS42 KTBW 310500
TAFTPA
TAF
KTPA 310537Z 3106/0106 VRB03KT P6SM FEW080 SCT250
     FM311400 12006KT P6SM SCT025 BKN250
     FM311900 21007KT P6SM VCTS SCT035CB BKN060 BKN120
     FM010200 VRB03KT P6SM FEW025 SCT080 BKN250=

USA.gov is the U.S. government's official web portal to all federal, state and local government web resources and services.